createdAt,value
2022-11-29T00:01:08.492Z,34.65
2022-11-29T00:31:11.665Z,35.33
2022-11-29T01:01:15.101Z,32.47
2022-11-29T01:31:18.132Z,26.90
2022-11-29T02:01:22.262Z,30.20
2022-11-29T02:31:25.281Z,36.90
2022-11-29T03:01:29.402Z,26.17
2022-11-29T03:31:32.838Z,38.13
2022-11-29T04:01:38.078Z,28.90
2022-11-29T04:31:41.547Z,26.40
2022-11-29T05:01:45.838Z,28.27
2022-11-29T05:31:49.334Z,40.50
2022-11-29T06:01:52.904Z,27.85
2022-11-29T06:31:55.842Z,43.83
2022-11-29T07:01:59.435Z,43.93
2022-11-29T07:32:02.351Z,39.20
2022-11-29T08:02:11.507Z,41.95
2022-11-29T08:32:15.547Z,48.17
2022-11-29T09:02:19.944Z,41.00
2022-11-29T09:32:22.890Z,46.60
2022-11-29T10:02:28.684Z,49.28
2022-11-29T10:32:31.802Z,43.57
2022-11-29T11:02:36.232Z,48.60
2022-11-29T11:32:39.121Z,52.47
2022-11-29T12:02:42.987Z,41.73
2022-11-29T12:32:46.289Z,41.70
2022-11-29T13:02:49.993Z,44.77
2022-11-29T13:32:53.010Z,45.33
2022-11-29T14:02:56.317Z,49.23
2022-11-29T14:32:59.807Z,52.35
2022-11-29T15:03:03.949Z,44.23
2022-11-29T15:33:07.192Z,45.38
2022-11-29T16:03:10.181Z,57.50
2022-11-29T16:33:13.601Z,56.15
2022-11-29T17:03:16.781Z,52.65
2022-11-29T17:33:19.731Z,50.90
2022-11-29T18:03:22.941Z,64.27
2022-11-29T18:33:25.949Z,55.65
2022-11-29T19:03:29.423Z,57.40
2022-11-29T19:33:34.816Z,69.15
2022-11-29T20:03:37.995Z,57.00
2022-11-29T20:33:41.517Z,76.50
2022-11-29T21:03:45.718Z,44.13
2022-11-29T21:33:49.059Z,58.67
2022-11-29T22:03:52.035Z,46.60
2022-11-29T22:33:55.297Z,71.18
2022-11-29T23:03:58.436Z,72.10
2022-11-29T23:34:01.885Z,67.27
